sensor_id;sensor_type;location;lat;lon;timestamp;temperature;humidity
39969;DHT22;25648;47.808;19.004;2022-11-20T00:00:46;12.00;55.40
39969;DHT22;25648;47.808;19.004;2022-11-20T00:03:12;12.10;55.30
39969;DHT22;25648;47.808;19.004;2022-11-20T00:05:38;12.20;55.10
39969;DHT22;25648;47.808;19.004;2022-11-20T00:08:04;12.10;54.60
39969;DHT22;25648;47.808;19.004;2022-11-20T00:10:30;12.20;55.00
39969;DHT22;25648;47.808;19.004;2022-11-20T00:12:58;12.30;55.00
39969;DHT22;25648;47.808;19.004;2022-11-20T00:15:24;12.30;54.90
39969;DHT22;25648;47.808;19.004;2022-11-20T00:17:49;12.30;54.80
39969;DHT22;25648;47.808;19.004;2022-11-20T00:20:15;12.30;55.00
39969;DHT22;25648;47.808;19.004;2022-11-20T00:22:41;12.20;54.40
39969;DHT22;25648;47.808;19.004;2022-11-20T00:25:07;11.90;54.70
39969;DHT22;25648;47.808;19.004;2022-11-20T00:27:33;11.50;55.60
39969;DHT22;25648;47.808;19.004;2022-11-20T00:29:58;11.10;56.10
39969;DHT22;25648;47.808;19.004;2022-11-20T00:32:24;11.00;56.60
39969;DHT22;25648;47.808;19.004;2022-11-20T00:34:50;11.20;56.60
39969;DHT22;25648;47.808;19.004;2022-11-20T00:37:15;11.40;56.70
39969;DHT22;25648;47.808;19.004;2022-11-20T00:39:41;11.80;56.30
39969;DHT22;25648;47.808;19.004;2022-11-20T00:42:07;11.90;55.90
39969;DHT22;25648;47.808;19.004;2022-11-20T00:44:32;12.00;55.60
39969;DHT22;25648;47.808;19.004;2022-11-20T00:46:58;12.00;56.00
39969;DHT22;25648;47.808;19.004;2022-11-20T00:49:24;11.40;56.30
39969;DHT22;25648;47.808;19.004;2022-11-20T00:51:49;10.80;58.20
39969;DHT22;25648;47.808;19.004;2022-11-20T00:54:15;11.00;58.20
39969;DHT22;25648;47.808;19.004;2022-11-20T00:56:41;11.00;57.90
39969;DHT22;25648;47.808;19.004;2022-11-20T00:59:08;10.80;58.50
39969;DHT22;25648;47.808;19.004;2022-11-20T01:01:38;10.70;58.70
39969;DHT22;25648;47.808;19.004;2022-11-20T01:04:04;10.60;59.10
39969;DHT22;25648;47.808;19.004;2022-11-20T01:06:32;10.40;59.20
39969;DHT22;25648;47.808;19.004;2022-11-20T01:09:00;10.10;59.70
39969;DHT22;25648;47.808;19.004;2022-11-20T01:11:29;10.10;60.10
39969;DHT22;25648;47.808;19.004;2022-11-20T01:13:56;10.00;59.70
39969;DHT22;25648;47.808;19.004;2022-11-20T01:16:29;10.20;60.00
39969;DHT22;25648;47.808;19.004;2022-11-20T01:18:58;10.50;59.40
39969;DHT22;25648;47.808;19.004;2022-11-20T01:21:27;10.80;58.30
39969;DHT22;25648;47.808;19.004;2022-11-20T01:23:53;10.70;58.30
39969;DHT22;25648;47.808;19.004;2022-11-20T01:26:27;10.70;58.50
39969;DHT22;25648;47.808;19.004;2022-11-20T01:28:53;10.70;58.40
39969;DHT22;25648;47.808;19.004;2022-11-20T01:31:25;10.50;58.60
39969;DHT22;25648;47.808;19.004;2022-11-20T01:33:53;10.10;58.70
39969;DHT22;25648;47.808;19.004;2022-11-20T01:36:21;9.80;59.80
39969;DHT22;25648;47.808;19.004;2022-11-20T01:38:47;9.70;59.50
39969;DHT22;25648;47.808;19.004;2022-11-20T01:41:14;9.60;60.30
39969;DHT22;25648;47.808;19.004;2022-11-20T01:44:01;9.60;60.50
39969;DHT22;25648;47.808;19.004;2022-11-20T01:46:27;9.80;60.00
39969;DHT22;25648;47.808;19.004;2022-11-20T01:49:11;9.90;59.40
39969;DHT22;25648;47.808;19.004;2022-11-20T01:54:17;10.20;58.80
39969;DHT22;25648;47.808;19.004;2022-11-20T01:56:46;10.30;59.20
39969;DHT22;25648;47.808;19.004;2022-11-20T01:59:16;10.60;58.40
39969;DHT22;25648;47.808;19.004;2022-11-20T02:01:43;10.80;57.40
39969;DHT22;25648;47.808;19.004;2022-11-20T02:04:10;10.80;57.40
39969;DHT22;25648;47.808;19.004;2022-11-20T02:06:40;10.90;56.60
39969;DHT22;25648;47.808;19.004;2022-11-20T02:09:08;10.40;57.60
39969;DHT22;25648;47.808;19.004;2022-11-20T02:11:33;10.60;58.10
39969;DHT22;25648;47.808;19.004;2022-11-20T02:13:59;10.60;57.70
39969;DHT22;25648;47.808;19.004;2022-11-20T02:16:27;10.80;57.10
39969;DHT22;25648;47.808;19.004;2022-11-20T02:18:57;10.00;57.90
39969;DHT22;25648;47.808;19.004;2022-11-20T02:24:07;9.90;59.40
39969;DHT22;25648;47.808;19.004;2022-11-20T02:26:49;10.40;58.40
39969;DHT22;25648;47.808;19.004;2022-11-20T02:29:25;10.90;57.30
39969;DHT22;25648;47.808;19.004;2022-11-20T02:31:53;11.00;57.00
39969;DHT22;25648;47.808;19.004;2022-11-20T02:34:20;11.30;56.70
39969;DHT22;25648;47.808;19.004;2022-11-20T02:36:46;11.60;55.70
39969;DHT22;25648;47.808;19.004;2022-11-20T02:39:13;11.80;55.80
39969;DHT22;25648;47.808;19.004;2022-11-20T02:41:42;11.80;55.30
39969;DHT22;25648;47.808;19.004;2022-11-20T02:44:08;11.20;56.20
39969;DHT22;25648;47.808;19.004;2022-11-20T02:46:34;11.00;56.80
39969;DHT22;25648;47.808;19.004;2022-11-20T02:49:05;11.10;56.60
39969;DHT22;25648;47.808;19.004;2022-11-20T02:51:30;11.20;56.10
39969;DHT22;25648;47.808;19.004;2022-11-20T02:53:56;11.30;56.20
39969;DHT22;25648;47.808;19.004;2022-11-20T02:56:22;11.40;55.60
39969;DHT22;25648;47.808;19.004;2022-11-20T02:58:48;11.10;56.20
39969;DHT22;25648;47.808;19.004;2022-11-20T03:01:13;11.10;56.60
39969;DHT22;25648;47.808;19.004;2022-11-20T03:03:39;11.00;56.00
39969;DHT22;25648;47.808;19.004;2022-11-20T03:06:05;10.30;57.90
39969;DHT22;25648;47.808;19.004;2022-11-20T03:08:31;10.40;58.20
39969;DHT22;25648;47.808;19.004;2022-11-20T03:11:02;10.60;57.90
39969;DHT22;25648;47.808;19.004;2022-11-20T03:13:28;10.80;56.60
39969;DHT22;25648;47.808;19.004;2022-11-20T03:15:54;10.50;57.40
39969;DHT22;25648;47.808;19.004;2022-11-20T03:18:20;10.10;58.30
39969;DHT22;25648;47.808;19.004;2022-11-20T03:20:45;10.40;58.80
39969;DHT22;25648;47.808;19.004;2022-11-20T03:23:11;10.70;57.90
39969;DHT22;25648;47.808;19.004;2022-11-20T03:25:37;10.90;56.90
39969;DHT22;25648;47.808;19.004;2022-11-20T03:28:03;11.10;56.30
39969;DHT22;25648;47.808;19.004;2022-11-20T03:30:28;10.80;57.10
39969;DHT22;25648;47.808;19.004;2022-11-20T03:32:54;10.80;57.20
39969;DHT22;25648;47.808;19.004;2022-11-20T03:35:20;10.80;57.10
39969;DHT22;25648;47.808;19.004;2022-11-20T03:37:45;11.10;56.20
39969;DHT22;25648;47.808;19.004;2022-11-20T03:40:12;11.10;56.10
39969;DHT22;25648;47.808;19.004;2022-11-20T03:42:37;11.10;56.60
39969;DHT22;25648;47.808;19.004;2022-11-20T03:45:14;11.00;56.30
39969;DHT22;25648;47.808;19.004;2022-11-20T03:47:40;10.80;56.70
39969;DHT22;25648;47.808;19.004;2022-11-20T03:50:06;10.90;56.90
39969;DHT22;25648;47.808;19.004;2022-11-20T03:52:32;11.10;56.30
39969;DHT22;25648;47.808;19.004;2022-11-20T03:54:57;11.10;56.60
39969;DHT22;25648;47.808;19.004;2022-11-20T03:57:23;11.10;56.00
39969;DHT22;25648;47.808;19.004;2022-11-20T03:59:49;10.90;56.00
39969;DHT22;25648;47.808;19.004;2022-11-20T04:02:14;10.80;56.40
39969;DHT22;25648;47.808;19.004;2022-11-20T04:04:40;10.80;56.80
39969;DHT22;25648;47.808;19.004;2022-11-20T04:07:06;10.80;56.40
39969;DHT22;25648;47.808;19.004;2022-11-20T04:09:31;10.80;56.40
39969;DHT22;25648;47.808;19.004;2022-11-20T04:11:57;11.00;56.00
39969;DHT22;25648;47.808;19.004;2022-11-20T04:14:23;11.30;56.00
39969;DHT22;25648;47.808;19.004;2022-11-20T04:16:49;11.40;55.30
39969;DHT22;25648;47.808;19.004;2022-11-20T04:19:15;11.30;54.70
39969;DHT22;25648;47.808;19.004;2022-11-20T04:21:42;10.90;55.40
39969;DHT22;25648;47.808;19.004;2022-11-20T04:24:08;10.60;56.50
39969;DHT22;25648;47.808;19.004;2022-11-20T04:26:34;10.60;56.60
39969;DHT22;25648;47.808;19.004;2022-11-20T04:29:00;10.70;56.40
39969;DHT22;25648;47.808;19.004;2022-11-20T04:31:31;10.50;57.00
39969;DHT22;25648;47.808;19.004;2022-11-20T04:34:01;10.70;56.70
39969;DHT22;25648;47.808;19.004;2022-11-20T04:36:27;10.80;56.50
39969;DHT22;25648;47.808;19.004;2022-11-20T04:38:55;11.00;56.20
39969;DHT22;25648;47.808;19.004;2022-11-20T04:41:26;11.20;56.30
39969;DHT22;25648;47.808;19.004;2022-11-20T04:43:55;11.30;55.60
39969;DHT22;25648;47.808;19.004;2022-11-20T04:46:25;11.30;55.60
39969;DHT22;25648;47.808;19.004;2022-11-20T04:48:51;11.10;54.80
39969;DHT22;25648;47.808;19.004;2022-11-20T04:51:17;10.80;55.50
39969;DHT22;25648;47.808;19.004;2022-11-20T04:53:43;11.00;55.10
39969;DHT22;25648;47.808;19.004;2022-11-20T04:56:11;11.20;54.90
39969;DHT22;25648;47.808;19.004;2022-11-20T04:58:40;11.20;54.00
39969;DHT22;25648;47.808;19.004;2022-11-20T05:01:20;11.30;54.30
39969;DHT22;25648;47.808;19.004;2022-11-20T05:03:46;11.40;53.90
39969;DHT22;25648;47.808;19.004;2022-11-20T05:06:14;10.60;54.00
39969;DHT22;25648;47.808;19.004;2022-11-20T05:08:41;9.80;56.60
39969;DHT22;25648;47.808;19.004;2022-11-20T05:11:09;10.00;57.00
39969;DHT22;25648;47.808;19.004;2022-11-20T05:13:35;10.40;56.30
39969;DHT22;25648;47.808;19.004;2022-11-20T05:16:06;10.80;55.50
39969;DHT22;25648;47.808;19.004;2022-11-20T05:18:37;10.70;55.60
39969;DHT22;25648;47.808;19.004;2022-11-20T05:21:03;10.90;55.40
39969;DHT22;25648;47.808;19.004;2022-11-20T05:23:31;11.20;55.00
39969;DHT22;25648;47.808;19.004;2022-11-20T05:25:57;11.40;54.60
39969;DHT22;25648;47.808;19.004;2022-11-20T05:28:24;11.70;54.10
39969;DHT22;25648;47.808;19.004;2022-11-20T05:30:51;11.70;54.00
39969;DHT22;25648;47.808;19.004;2022-11-20T05:33:17;11.60;54.20
39969;DHT22;25648;47.808;19.004;2022-11-20T05:35:43;10.80;54.30
39969;DHT22;25648;47.808;19.004;2022-11-20T05:38:09;10.50;55.00
39969;DHT22;25648;47.808;19.004;2022-11-20T05:40:35;10.30;56.10
39969;DHT22;25648;47.808;19.004;2022-11-20T05:43:01;10.50;55.90
39969;DHT22;25648;47.808;19.004;2022-11-20T05:45:27;10.60;55.80
39969;DHT22;25648;47.808;19.004;2022-11-20T05:47:52;11.00;55.50
39969;DHT22;25648;47.808;19.004;2022-11-20T05:50:18;11.20;55.10
39969;DHT22;25648;47.808;19.004;2022-11-20T05:52:44;11.30;54.30
39969;DHT22;25648;47.808;19.004;2022-11-20T05:55:10;11.50;54.40
39969;DHT22;25648;47.808;19.004;2022-11-20T05:57:36;11.60;54.20
39969;DHT22;25648;47.808;19.004;2022-11-20T06:00:03;11.60;54.30
39969;DHT22;25648;47.808;19.004;2022-11-20T06:02:28;11.70;54.10
39969;DHT22;25648;47.808;19.004;2022-11-20T06:04:54;11.70;53.50
39969;DHT22;25648;47.808;19.004;2022-11-20T06:07:20;11.70;54.00
39969;DHT22;25648;47.808;19.004;2022-11-20T06:09:45;11.80;54.00
39969;DHT22;25648;47.808;19.004;2022-11-20T06:12:11;11.80;53.60
39969;DHT22;25648;47.808;19.004;2022-11-20T06:14:37;11.50;54.30
39969;DHT22;25648;47.808;19.004;2022-11-20T06:17:02;11.60;54.40
39969;DHT22;25648;47.808;19.004;2022-11-20T06:19:28;11.70;54.50
39969;DHT22;25648;47.808;19.004;2022-11-20T06:21:54;11.80;53.90
39969;DHT22;25648;47.808;19.004;2022-11-20T06:24:19;11.80;53.90
39969;DHT22;25648;47.808;19.004;2022-11-20T06:26:45;11.90;53.80
39969;DHT22;25648;47.808;19.004;2022-11-20T06:29:11;12.00;53.60
39969;DHT22;25648;47.808;19.004;2022-11-20T06:31:37;12.10;53.30
39969;DHT22;25648;47.808;19.004;2022-11-20T06:34:06;12.20;53.20
39969;DHT22;25648;47.808;19.004;2022-11-20T06:36:32;11.90;54.00
39969;DHT22;25648;47.808;19.004;2022-11-20T06:38:59;11.70;54.20
39969;DHT22;25648;47.808;19.004;2022-11-20T06:41:25;11.50;54.60
39969;DHT22;25648;47.808;19.004;2022-11-20T06:43:51;11.50;54.70
39969;DHT22;25648;47.808;19.004;2022-11-20T06:46:18;11.50;55.00
39969;DHT22;25648;47.808;19.004;2022-11-20T06:48:45;11.40;54.80
39969;DHT22;25648;47.808;19.004;2022-11-20T06:51:11;11.30;55.10
39969;DHT22;25648;47.808;19.004;2022-11-20T06:53:37;11.30;55.60
39969;DHT22;25648;47.808;19.004;2022-11-20T06:56:03;11.50;55.30
39969;DHT22;25648;47.808;19.004;2022-11-20T06:58:31;11.80;54.90
39969;DHT22;25648;47.808;19.004;2022-11-20T07:00:58;11.90;54.60
39969;DHT22;25648;47.808;19.004;2022-11-20T07:03:24;11.80;54.80
39969;DHT22;25648;47.808;19.004;2022-11-20T07:05:50;11.90;54.50
39969;DHT22;25648;47.808;19.004;2022-11-20T07:08:16;11.90;54.20
39969;DHT22;25648;47.808;19.004;2022-11-20T07:10:41;12.00;54.10
39969;DHT22;25648;47.808;19.004;2022-11-20T07:13:07;11.90;54.00
39969;DHT22;25648;47.808;19.004;2022-11-20T07:15:33;12.10;54.20
39969;DHT22;25648;47.808;19.004;2022-11-20T07:17:59;12.20;53.60
39969;DHT22;25648;47.808;19.004;2022-11-20T07:20:25;12.40;53.60
39969;DHT22;25648;47.808;19.004;2022-11-20T07:22:55;12.40;53.40
39969;DHT22;25648;47.808;19.004;2022-11-20T07:25:22;12.40;53.40
39969;DHT22;25648;47.808;19.004;2022-11-20T07:27:48;12.40;53.00
39969;DHT22;25648;47.808;19.004;2022-11-20T07:30:15;12.30;53.40
39969;DHT22;25648;47.808;19.004;2022-11-20T07:32:40;12.10;53.30
39969;DHT22;25648;47.808;19.004;2022-11-20T07:35:06;12.30;53.50
39969;DHT22;25648;47.808;19.004;2022-11-20T07:37:35;12.30;53.50
39969;DHT22;25648;47.808;19.004;2022-11-20T07:40:01;12.30;53.20
39969;DHT22;25648;47.808;19.004;2022-11-20T07:42:27;12.10;52.20
39969;DHT22;25648;47.808;19.004;2022-11-20T07:44:52;12.00;53.10
39969;DHT22;25648;47.808;19.004;2022-11-20T07:47:18;12.10;53.30
39969;DHT22;25648;47.808;19.004;2022-11-20T07:49:44;12.00;54.10
39969;DHT22;25648;47.808;19.004;2022-11-20T07:52:09;12.00;53.80
39969;DHT22;25648;47.808;19.004;2022-11-20T07:54:35;12.40;53.30
39969;DHT22;25648;47.808;19.004;2022-11-20T07:57:01;12.50;52.40
39969;DHT22;25648;47.808;19.004;2022-11-20T07:59:26;12.70;52.00
39969;DHT22;25648;47.808;19.004;2022-11-20T08:02:00;12.50;51.90
39969;DHT22;25648;47.808;19.004;2022-11-20T08:04:26;12.50;51.80
39969;DHT22;25648;47.808;19.004;2022-11-20T08:06:54;12.70;51.90
39969;DHT22;25648;47.808;19.004;2022-11-20T08:09:20;12.90;51.90
39969;DHT22;25648;47.808;19.004;2022-11-20T08:11:46;13.10;52.00
39969;DHT22;25648;47.808;19.004;2022-11-20T08:14:30;13.40;51.10
39969;DHT22;25648;47.808;19.004;2022-11-20T08:16:55;13.60;51.00
39969;DHT22;25648;47.808;19.004;2022-11-20T08:19:21;13.60;50.80
39969;DHT22;25648;47.808;19.004;2022-11-20T08:21:47;13.50;50.00
39969;DHT22;25648;47.808;19.004;2022-11-20T08:24:12;13.20;50.80
39969;DHT22;25648;47.808;19.004;2022-11-20T08:26:39;13.20;51.10
39969;DHT22;25648;47.808;19.004;2022-11-20T08:29:05;13.30;51.50
39969;DHT22;25648;47.808;19.004;2022-11-20T08:31:31;13.30;51.80
39969;DHT22;25648;47.808;19.004;2022-11-20T08:33:57;13.50;50.90
39969;DHT22;25648;47.808;19.004;2022-11-20T08:36:24;12.90;51.30
39969;DHT22;25648;47.808;19.004;2022-11-20T08:38:51;13.00;52.10
39969;DHT22;25648;47.808;19.004;2022-11-20T08:41:18;13.20;51.50
39969;DHT22;25648;47.808;19.004;2022-11-20T08:43:55;13.20;50.90
39969;DHT22;25648;47.808;19.004;2022-11-20T08:46:21;12.90;51.90
39969;DHT22;25648;47.808;19.004;2022-11-20T08:48:47;12.90;52.50
39969;DHT22;25648;47.808;19.004;2022-11-20T08:51:14;12.60;52.80
39969;DHT22;25648;47.808;19.004;2022-11-20T08:53:40;12.80;53.20
39969;DHT22;25648;47.808;19.004;2022-11-20T08:56:07;13.10;52.30
39969;DHT22;25648;47.808;19.004;2022-11-20T08:58:32;13.20;52.20
39969;DHT22;25648;47.808;19.004;2022-11-20T09:00:58;13.30;52.40
39969;DHT22;25648;47.808;19.004;2022-11-20T09:03:24;13.40;51.90
39969;DHT22;25648;47.808;19.004;2022-11-20T09:06:03;13.10;51.90
39969;DHT22;25648;47.808;19.004;2022-11-20T09:08:29;13.10;52.50
39969;DHT22;25648;47.808;19.004;2022-11-20T09:10:56;13.20;52.40
39969;DHT22;25648;47.808;19.004;2022-11-20T09:13:23;13.20;52.60
39969;DHT22;25648;47.808;19.004;2022-11-20T09:15:57;13.40;52.80
39969;DHT22;25648;47.808;19.004;2022-11-20T09:18:24;13.60;52.60
39969;DHT22;25648;47.808;19.004;2022-11-20T09:20:50;13.60;52.20
39969;DHT22;25648;47.808;19.004;2022-11-20T09:23:16;13.60;52.30
39969;DHT22;25648;47.808;19.004;2022-11-20T09:25:42;13.70;52.20
39969;DHT22;25648;47.808;19.004;2022-11-20T09:28:08;13.80;52.00
39969;DHT22;25648;47.808;19.004;2022-11-20T09:30:34;13.60;52.30
39969;DHT22;25648;47.808;19.004;2022-11-20T09:32:59;13.80;52.30
39969;DHT22;25648;47.808;19.004;2022-11-20T09:35:26;13.80;52.00
39969;DHT22;25648;47.808;19.004;2022-11-20T09:37:52;13.90;52.50
39969;DHT22;25648;47.808;19.004;2022-11-20T09:45:23;13.30;53.00
39969;DHT22;25648;47.808;19.004;2022-11-20T09:55:54;13.60;53.50
39969;DHT22;25648;47.808;19.004;2022-11-20T09:58:33;14.00;53.10
39969;DHT22;25648;47.808;19.004;2022-11-20T10:01:12;14.50;51.50
39969;DHT22;25648;47.808;19.004;2022-11-20T10:03:58;14.20;52.00
39969;DHT22;25648;47.808;19.004;2022-11-20T10:06:56;14.20;52.00
39969;DHT22;25648;47.808;19.004;2022-11-20T10:09:40;14.60;51.60
39969;DHT22;25648;47.808;19.004;2022-11-20T10:18:23;16.20;50.00
39969;DHT22;25648;47.808;19.004;2022-11-20T10:26:04;16.80;49.40
39969;DHT22;25648;47.808;19.004;2022-11-20T10:28:50;17.30;48.00
39969;DHT22;25648;47.808;19.004;2022-11-20T10:31:38;17.40;47.60
39969;DHT22;25648;47.808;19.004;2022-11-20T10:34:19;16.90;48.90
39969;DHT22;25648;47.808;19.004;2022-11-20T10:36:55;16.80;48.70
39969;DHT22;25648;47.808;19.004;2022-11-20T10:39:28;17.30;48.20
39969;DHT22;25648;47.808;19.004;2022-11-20T10:41:54;17.70;47.50
39969;DHT22;25648;47.808;19.004;2022-11-20T10:44:25;17.50;47.90
39969;DHT22;25648;47.808;19.004;2022-11-20T10:47:14;17.40;47.30
39969;DHT22;25648;47.808;19.004;2022-11-20T10:49:42;17.00;48.10
39969;DHT22;25648;47.808;19.004;2022-11-20T10:55:12;17.20;48.00
39969;DHT22;25648;47.808;19.004;2022-11-20T10:58:16;16.40;49.50
39969;DHT22;25648;47.808;19.004;2022-11-20T11:00:44;16.50;49.70
39969;DHT22;25648;47.808;19.004;2022-11-20T11:03:23;16.30;50.10
39969;DHT22;25648;47.808;19.004;2022-11-20T11:05:53;15.70;50.30
39969;DHT22;25648;47.808;19.004;2022-11-20T11:08:20;15.30;51.20
39969;DHT22;25648;47.808;19.004;2022-11-20T11:10:57;14.70;52.10
39969;DHT22;25648;47.808;19.004;2022-11-20T11:13:27;14.50;52.20
39969;DHT22;25648;47.808;19.004;2022-11-20T11:15:53;14.00;53.80
39969;DHT22;25648;47.808;19.004;2022-11-20T11:18:37;13.80;54.20
39969;DHT22;25648;47.808;19.004;2022-11-20T11:21:05;14.10;54.10
39969;DHT22;25648;47.808;19.004;2022-11-20T11:23:33;13.60;54.40
39969;DHT22;25648;47.808;19.004;2022-11-20T11:26:01;13.80;55.10
39969;DHT22;25648;47.808;19.004;2022-11-20T11:28:27;13.70;54.50
39969;DHT22;25648;47.808;19.004;2022-11-20T11:30:54;14.10;54.40
39969;DHT22;25648;47.808;19.004;2022-11-20T11:33:25;14.60;53.70
39969;DHT22;25648;47.808;19.004;2022-11-20T11:36:00;14.40;53.80
39969;DHT22;25648;47.808;19.004;2022-11-20T11:38:39;14.50;54.20
39969;DHT22;25648;47.808;19.004;2022-11-20T11:41:07;14.40;53.40
39969;DHT22;25648;47.808;19.004;2022-11-20T11:43:36;14.70;53.20
39969;DHT22;25648;47.808;19.004;2022-11-20T11:46:33;14.20;53.50
39969;DHT22;25648;47.808;19.004;2022-11-20T11:49:16;14.10;54.10
39969;DHT22;25648;47.808;19.004;2022-11-20T11:54:19;14.00;54.50
39969;DHT22;25648;47.808;19.004;2022-11-20T11:56:48;14.00;55.30
39969;DHT22;25648;47.808;19.004;2022-11-20T11:59:27;14.40;54.90
39969;DHT22;25648;47.808;19.004;2022-11-20T12:01:58;14.60;53.70
39969;DHT22;25648;47.808;19.004;2022-11-20T12:04:44;14.20;54.70
39969;DHT22;25648;47.808;19.004;2022-11-20T12:07:20;14.40;54.60
39969;DHT22;25648;47.808;19.004;2022-11-20T12:09:51;14.60;54.00
39969;DHT22;25648;47.808;19.004;2022-11-20T12:12:27;14.50;54.60
39969;DHT22;25648;47.808;19.004;2022-11-20T12:14:56;14.80;54.60
39969;DHT22;25648;47.808;19.004;2022-11-20T12:17:22;14.70;54.10
39969;DHT22;25648;47.808;19.004;2022-11-20T12:19:49;14.30;54.10
39969;DHT22;25648;47.808;19.004;2022-11-20T12:22:23;14.00;55.60
39969;DHT22;25648;47.808;19.004;2022-11-20T12:30:19;14.00;55.10
39969;DHT22;25648;47.808;19.004;2022-11-20T12:36:10;14.20;55.10
39969;DHT22;25648;47.808;19.004;2022-11-20T12:38:43;14.20;54.50
39969;DHT22;25648;47.808;19.004;2022-11-20T12:52:56;13.70;55.50
39969;DHT22;25648;47.808;19.004;2022-11-20T12:58:19;13.30;56.00
39969;DHT22;25648;47.808;19.004;2022-11-20T13:06:38;13.30;57.10
39969;DHT22;25648;47.808;19.004;2022-11-20T13:09:09;12.70;57.10
39969;DHT22;25648;47.808;19.004;2022-11-20T13:14:32;12.80;57.50
39969;DHT22;25648;47.808;19.004;2022-11-20T13:19:55;13.20;56.50
39969;DHT22;25648;47.808;19.004;2022-11-20T13:25:43;14.00;55.40
39969;DHT22;25648;47.808;19.004;2022-11-20T13:35:03;14.90;53.70
39969;DHT22;25648;47.808;19.004;2022-11-20T13:40:54;14.50;54.10
39969;DHT22;25648;47.808;19.004;2022-11-20T13:49:37;14.60;54.50
39969;DHT22;25648;47.808;19.004;2022-11-20T13:59:05;14.20;55.00
39969;DHT22;25648;47.808;19.004;2022-11-20T14:08:04;14.00;54.90
39969;DHT22;25648;47.808;19.004;2022-11-20T14:14:22;13.80;56.20
39969;DHT22;25648;47.808;19.004;2022-11-20T14:16:49;14.20;55.10
39969;DHT22;25648;47.808;19.004;2022-11-20T14:22:50;14.30;55.10
39969;DHT22;25648;47.808;19.004;2022-11-20T14:28:11;14.10;55.10
39969;DHT22;25648;47.808;19.004;2022-11-20T14:30:46;14.00;55.20
39969;DHT22;25648;47.808;19.004;2022-11-20T14:54:58;13.50;56.40
39969;DHT22;25648;47.808;19.004;2022-11-20T14:57:32;13.40;56.20
39969;DHT22;25648;47.808;19.004;2022-11-20T15:02:44;13.60;56.70
39969;DHT22;25648;47.808;19.004;2022-11-20T15:05:10;13.70;56.30
39969;DHT22;25648;47.808;19.004;2022-11-20T15:07:38;13.60;56.40
39969;DHT22;25648;47.808;19.004;2022-11-20T15:12:50;13.30;56.80
39969;DHT22;25648;47.808;19.004;2022-11-20T15:15:46;13.30;56.90
39969;DHT22;25648;47.808;19.004;2022-11-20T15:25:12;13.40;56.80
39969;DHT22;25648;47.808;19.004;2022-11-20T15:27:37;13.30;56.90
39969;DHT22;25648;47.808;19.004;2022-11-20T15:30:16;13.40;57.10
39969;DHT22;25648;47.808;19.004;2022-11-20T15:32:42;13.40;56.70
39969;DHT22;25648;47.808;19.004;2022-11-20T15:35:09;13.60;56.90
39969;DHT22;25648;47.808;19.004;2022-11-20T15:37:35;13.70;56.40
39969;DHT22;25648;47.808;19.004;2022-11-20T15:46:49;13.50;56.80
39969;DHT22;25648;47.808;19.004;2022-11-20T15:52:22;13.30;57.70
39969;DHT22;25648;47.808;19.004;2022-11-20T15:54:48;13.40;57.30
39969;DHT22;25648;47.808;19.004;2022-11-20T15:57:40;13.40;57.20
39969;DHT22;25648;47.808;19.004;2022-11-20T16:00:26;13.40;57.10
39969;DHT22;25648;47.808;19.004;2022-11-20T16:03:18;13.40;57.10
39969;DHT22;25648;47.808;19.004;2022-11-20T16:06:01;13.40;57.20
39969;DHT22;25648;47.808;19.004;2022-11-20T16:08:29;13.30;57.50
39969;DHT22;25648;47.808;19.004;2022-11-20T16:10:55;13.30;57.50
39969;DHT22;25648;47.808;19.004;2022-11-20T16:13:23;13.10;57.60
39969;DHT22;25648;47.808;19.004;2022-11-20T16:16:54;13.00;58.10
39969;DHT22;25648;47.808;19.004;2022-11-20T16:19:23;13.20;57.70
39969;DHT22;25648;47.808;19.004;2022-11-20T16:21:53;13.20;57.70
39969;DHT22;25648;47.808;19.004;2022-11-20T16:24:19;13.20;57.80
39969;DHT22;25648;47.808;19.004;2022-11-20T16:26:44;13.30;57.30
39969;DHT22;25648;47.808;19.004;2022-11-20T16:29:16;13.20;57.70
39969;DHT22;25648;47.808;19.004;2022-11-20T16:31:44;13.30;57.60
39969;DHT22;25648;47.808;19.004;2022-11-20T16:34:10;13.40;57.20
39969;DHT22;25648;47.808;19.004;2022-11-20T16:37:17;13.10;57.70
39969;DHT22;25648;47.808;19.004;2022-11-20T16:40:06;12.90;58.10
39969;DHT22;25648;47.808;19.004;2022-11-20T16:42:37;12.90;58.00
39969;DHT22;25648;47.808;19.004;2022-11-20T16:45:03;12.80;58.40
39969;DHT22;25648;47.808;19.004;2022-11-20T16:47:35;12.70;58.10
39969;DHT22;25648;47.808;19.004;2022-11-20T16:53:16;12.60;58.80
39969;DHT22;25648;47.808;19.004;2022-11-20T16:59:12;12.30;59.90
39969;DHT22;25648;47.808;19.004;2022-11-20T17:02:23;12.50;59.30
39969;DHT22;25648;47.808;19.004;2022-11-20T17:04:51;12.70;58.60
39969;DHT22;25648;47.808;19.004;2022-11-20T17:07:51;12.70;58.10
39969;DHT22;25648;47.808;19.004;2022-11-20T17:10:36;12.80;58.10
39969;DHT22;25648;47.808;19.004;2022-11-20T17:13:29;12.80;58.00
39969;DHT22;25648;47.808;19.004;2022-11-20T17:16:09;12.80;58.30
39969;DHT22;25648;47.808;19.004;2022-11-20T17:18:35;12.50;58.30
39969;DHT22;25648;47.808;19.004;2022-11-20T17:21:02;12.10;59.30
39969;DHT22;25648;47.808;19.004;2022-11-20T17:23:34;12.00;59.50
39969;DHT22;25648;47.808;19.004;2022-11-20T17:26:21;12.00;59.40
39969;DHT22;25648;47.808;19.004;2022-11-20T17:29:20;12.10;59.40
39969;DHT22;25648;47.808;19.004;2022-11-20T17:31:54;12.10;59.20
39969;DHT22;25648;47.808;19.004;2022-11-20T17:34:19;12.10;59.60
39969;DHT22;25648;47.808;19.004;2022-11-20T17:40:12;12.10;59.70
39969;DHT22;25648;47.808;19.004;2022-11-20T17:46:23;11.90;59.70
39969;DHT22;25648;47.808;19.004;2022-11-20T17:48:58;11.50;59.80
39969;DHT22;25648;47.808;19.004;2022-11-20T17:51:33;11.10;60.70
39969;DHT22;25648;47.808;19.004;2022-11-20T17:57:32;10.70;61.80
39969;DHT22;25648;47.808;19.004;2022-11-20T18:00:30;10.80;62.00
39969;DHT22;25648;47.808;19.004;2022-11-20T18:03:08;10.50;62.40
39969;DHT22;25648;47.808;19.004;2022-11-20T18:05:42;10.50;62.90
39969;DHT22;25648;47.808;19.004;2022-11-20T18:08:16;10.50;63.10
39969;DHT22;25648;47.808;19.004;2022-11-20T18:11:17;10.40;63.20
39969;DHT22;25648;47.808;19.004;2022-11-20T18:37:22;11.10;61.50
39969;DHT22;25648;47.808;19.004;2022-11-20T18:40:36;11.30;61.00
39969;DHT22;25648;47.808;19.004;2022-11-20T18:54:05;12.10;57.80
39969;DHT22;25648;47.808;19.004;2022-11-20T18:57:08;12.00;57.10
39969;DHT22;25648;47.808;19.004;2022-11-20T18:59:50;11.90;57.00
39969;DHT22;25648;47.808;19.004;2022-11-20T19:02:20;11.90;57.20
39969;DHT22;25648;47.808;19.004;2022-11-20T20:13:59;10.10;59.80